Time;durP1;ratioP1;P1;durP2;ratioP2;P2;SDS_P1;SDS_P2;PMS_P1;PMS_P2;Temp;Humidity;BMP_temperature;BMP_pressure;BME280_temperature;BME280_humidity;BME280_pressure;Samples;Min_cycle;Max_cycle;Signal;HPM_P1;HPM_P2
2022/05/15 00:00:42;;;;;;;34.17;9.40;;;7.00;20.00;;;;;;5013634;28;20528;-26
2022/05/15 00:03:16;;;;;;;41.40;10.93;;;7.00;54.90;;;;;;5014418;28;20077;-26
2022/05/15 00:05:44;;;;;;;44.63;11.10;;;7.00;64.40;;;;;;4997184;28;20054;-26
2022/05/15 00:08:10;;;;;;;37.25;11.15;;;6.90;71.70;;;;;;5013754;28;20042;-27
2022/05/15 00:10:39;;;;;;;27.67;9.05;;;7.00;71.10;;;;;;5013788;28;20133;-26
2022/05/15 00:13:05;;;;;;;17.13;6.80;;;6.60;65.50;;;;;;5013757;28;20053;-26
2022/05/15 00:15:32;;;;;;;20.03;5.73;;;6.50;36.50;;;;;;4996708;28;20077;-26
2022/05/15 00:17:58;;;;;;;16.98;6.38;;;6.60;11.20;;;;;;5014266;28;20056;-27
2022/05/15 00:20:24;;;;;;;17.73;5.53;;;6.20;1.00;;;;;;5014531;28;20046;-27
2022/05/15 00:22:50;;;;;;;28.17;8.63;;;6.20;11.80;;;;;;5013432;28;20061;-27
2022/05/15 00:25:15;;;;;;;17.50;5.90;;;6.50;47.10;;;;;;5013734;28;20189;-26
2022/05/15 00:27:41;;;;;;;27.10;7.40;;;6.30;76.90;;;;;;5014104;28;20034;-26
2022/05/15 00:30:07;;;;;;;14.23;5.65;;;6.20;81.20;;;;;;5013344;28;20053;-26
2022/05/15 00:32:33;;;;;;;25.95;7.85;;;6.00;80.40;;;;;;5013577;28;20116;-26
2022/05/15 00:34:59;;;;;;;26.85;7.60;;;5.90;76.40;;;;;;5012181;28;20049;-26
2022/05/15 00:37:24;;;;;;;30.92;7.90;;;5.90;85.60;;;;;;5014059;28;20049;-26
2022/05/15 00:39:50;;;;;;;23.25;6.30;;;5.80;89.00;;;;;;5017155;28;20058;-26
2022/05/15 00:42:16;;;;;;;37.60;11.45;;;6.20;89.70;;;;;;5017264;28;20092;-26
2022/05/15 00:44:42;;;;;;;39.47;13.00;;;5.90;96.80;;;;;;5017362;28;20137;-26
2022/05/15 00:47:07;;;;;;;43.13;11.93;;;6.00;99.90;;;;;;5017286;28;20049;-26
2022/05/15 00:49:34;;;;;;;29.70;8.57;;;6.20;99.90;;;;;;5017242;28;20050;-26
2022/05/15 00:52:04;;;;;;;41.72;13.30;;;6.10;99.90;;;;;;5017035;28;20457;-26
2022/05/15 00:54:35;;;;;;;45.63;14.30;;;6.00;99.90;;;;;;5017076;28;20427;-26
2022/05/15 00:57:08;;;;;;;21.98;6.95;;;6.40;99.90;;;;;;5017097;28;20046;-26
2022/05/15 00:59:40;;;;;;;3.75;1.17;;;6.10;99.90;;;;;;5017973;28;20049;-26
2022/05/15 01:02:09;;;;;;;1.40;0.38;;;6.20;99.90;;;;;;5017146;28;20057;-26
2022/05/15 01:04:34;;;;;;;7.40;1.98;;;6.10;97.80;;;;;;5016959;28;20489;-26
2022/05/15 01:07:02;;;;;;;163.77;5.82;;;5.90;51.60;;;;;;5015868;28;20057;-26
2022/05/15 01:09:28;;;;;;;212.98;7.47;;;5.60;15.10;;;;;;5015691;28;20088;-26
2022/05/15 01:11:55;;;;;;;4.90;1.13;;;5.40;3.00;;;;;;5017450;28;20053;-26
2022/05/15 01:14:22;;;;;;;9.70;2.42;;;5.50;6.10;;;;;;5017344;28;20056;-26
2022/05/15 01:16:48;;;;;;;12.07;3.00;;;5.20;47.40;;;;;;5015632;28;20188;-26
2022/05/15 01:19:14;;;;;;;4.70;1.13;;;5.30;96.60;;;;;;5016734;28;20048;-26
2022/05/15 01:21:58;;;;;;;6.13;2.10;;;5.20;99.90;;;;;;5016920;28;20057;-26
2022/05/15 01:24:24;;;;;;;18.20;4.57;;;5.40;99.90;;;;;;4999186;28;20050;-26
2022/05/15 01:26:51;;;;;;;12.13;3.00;;;5.00;99.90;;;;;;5017345;28;20046;-26
2022/05/15 01:29:18;;;;;;;19.53;2.80;;;5.30;99.90;;;;;;5016525;28;20061;-26
2022/05/15 01:31:47;;;;;;;68.47;2.67;;;5.20;99.90;;;;;;5015547;28;20050;-26
2022/05/15 01:34:13;;;;;;;17.80;1.75;;;5.30;99.90;;;;;;5017017;28;20417;-26
2022/05/15 01:36:39;;;;;;;18.47;4.80;;;4.80;99.50;;;;;;5015420;28;20050;-26
2022/05/15 01:39:06;;;;;;;4.17;1.90;;;4.90;99.90;;;;;;5016888;28;20042;-26
2022/05/15 01:41:32;;;;;;;2.30;1.50;;;4.90;99.90;;;;;;5016344;28;20128;-25
2022/05/15 01:43:58;;;;;;;3.00;1.40;;;5.30;99.90;;;;;;5015992;28;20545;-26
2022/05/15 01:46:27;;;;;;;3.03;1.50;;;4.80;99.90;;;;;;5016762;28;20085;-26
2022/05/15 01:48:54;;;;;;;15.27;4.07;;;5.00;99.90;;;;;;5015680;28;20046;-26
2022/05/15 01:51:20;;;;;;;5.63;1.50;;;4.70;99.90;;;;;;5016657;28;20064;-26
2022/05/15 01:53:47;;;;;;;9.63;2.20;;;4.60;99.90;;;;;;5016067;28;20054;-26
2022/05/15 01:56:13;;;;;;;11.82;3.83;;;4.80;99.90;;;;;;5016460;28;20166;-26
2022/05/15 01:58:39;;;;;;;12.27;3.70;;;4.60;99.90;;;;;;5015980;28;20522;-26
2022/05/15 02:01:05;;;;;;;10.43;3.42;;;4.80;99.90;;;;;;5014764;28;20041;-26
2022/05/15 02:03:31;;;;;;;2.00;1.60;;;4.60;99.90;;;;;;5015915;28;20181;-25
2022/05/15 02:05:56;;;;;;;42.00;3.40;;;4.50;99.90;;;;;;4998580;28;20050;-26
2022/05/15 02:08:22;;;;;;;3.67;1.30;;;4.40;99.90;;;;;;5016289;28;20454;-26
2022/05/15 02:10:48;;;;;;;6.38;1.65;;;4.50;99.90;;;;;;4998970;28;20073;-26
2022/05/15 02:13:15;;;;;;;1.73;1.30;;;4.30;99.90;;;;;;5015697;28;20103;-26
2022/05/15 02:15:42;;;;;;;2.53;1.50;;;4.70;99.90;;;;;;5014992;28;20107;-26
2022/05/15 02:18:08;;;;;;;6.33;2.60;;;4.20;99.90;;;;;;5015275;28;20524;-26
2022/05/15 02:20:34;;;;;;;6.85;3.30;;;4.80;99.90;;;;;;5015575;28;20085;-26
2022/05/15 02:22:59;;;;;;;6.13;3.00;;;4.80;99.90;;;;;;5014235;28;20057;-26
2022/05/15 02:25:27;;;;;;;5.07;1.70;;;4.20;99.90;;;;;;5015508;28;20050;-26
2022/05/15 02:27:54;;;;;;;6.53;3.57;;;5.10;99.90;;;;;;4982714;28;20052;-26
2022/05/15 02:30:20;;;;;;;90.67;5.97;;;4.50;99.90;;;;;;5015366;28;20477;-26
2022/05/15 02:32:47;;;;;;;4.53;2.17;;;4.10;99.90;;;;;;5014922;28;20053;-26
2022/05/15 02:35:13;;;;;;;58.57;6.67;;;4.60;99.90;;;;;;5014314;28;20100;-26
2022/05/15 02:37:41;;;;;;;2.30;1.83;;;5.00;99.90;;;;;;5014290;28;20046;-26
2022/05/15 02:40:08;;;;;;;4.03;1.70;;;4.10;99.90;;;;;;5015277;28;20062;-25
2022/05/15 02:42:34;;;;;;;4.60;2.20;;;4.10;99.90;;;;;;5015755;28;20089;-23
2022/05/15 02:45:00;;;;;;;173.90;14.60;;;4.10;99.90;;;;;;5014815;28;20092;-23
2022/05/15 02:47:25;;;;;;;2.20;1.60;;;4.30;99.90;;;;;;5015556;28;20386;-23
2022/05/15 02:52:35;;;;;;;3.47;0.90;;;3.90;99.90;;;;;;5015609;28;20061;-23
2022/05/15 02:55:02;;;;;;;0.80;0.80;;;4.00;99.90;;;;;;5015500;28;20045;-23
2022/05/15 02:57:28;;;;;;;1.53;1.30;;;3.80;99.90;;;;;;5014808;28;20061;-23
2022/05/15 02:59:53;;;;;;;11.37;1.70;;;3.80;99.90;;;;;;5014833;28;20042;-23
2022/05/15 03:02:19;;;;;;;1.17;0.80;;;3.60;99.90;;;;;;5014780;28;20046;-23
2022/05/15 03:04:47;;;;;;;1.73;1.20;;;3.70;99.90;;;;;;5015006;28;20049;-23
2022/05/15 03:07:13;;;;;;;1.40;1.03;;;3.70;99.90;;;;;;5014705;28;20112;-23
2022/05/15 03:09:39;;;;;;;2.33;1.40;;;3.80;99.90;;;;;;5015267;28;20045;-23
2022/05/15 03:12:05;;;;;;;3.67;1.83;;;3.90;99.90;;;;;;5013712;28;20136;-23
2022/05/15 03:14:31;;;;;;;6.03;2.30;;;3.50;99.90;;;;;;5015132;28;20057;-23
2022/05/15 03:16:57;;;;;;;4.27;2.00;;;3.70;99.90;;;;;;4997629;28;20050;-23
2022/05/15 03:19:22;;;;;;;11.03;1.70;;;4.30;99.90;;;;;;5014548;28;20050;-23
2022/05/15 03:21:48;;;;;;;5.90;1.70;;;4.00;99.90;;;;;;5015060;28;20054;-23
2022/05/15 03:24:14;;;;;;;6.63;2.20;;;3.80;99.90;;;;;;5012875;28;20112;-23
2022/05/15 03:26:46;;;;;;;6.13;1.70;;;3.60;99.90;;;;;;5014304;28;20042;-23
2022/05/15 03:29:14;;;;;;;11.43;4.47;;;3.60;99.90;;;;;;5014899;28;20060;-23
2022/05/15 03:31:40;;;;;;;18.97;5.80;;;4.00;99.90;;;;;;5014338;28;20081;-23
2022/05/15 03:34:09;;;;;;;11.73;4.80;;;3.60;99.90;;;;;;5013846;28;20046;-23
2022/05/15 03:36:36;;;;;;;26.53;6.77;;;3.80;99.90;;;;;;5014494;28;20385;-23
2022/05/15 03:39:06;;;;;;;27.30;8.50;;;4.30;99.90;;;;;;5014055;28;20089;-22
2022/05/15 03:41:35;;;;;;;14.17;6.60;;;4.10;99.90;;;;;;5014751;28;20085;-23
2022/05/15 03:44:02;;;;;;;18.40;6.27;;;4.40;99.90;;;;;;5014969;28;20125;-23
2022/05/15 03:46:28;;;;;;;23.40;6.83;;;4.20;99.90;;;;;;5013951;28;20568;-23
2022/05/15 03:48:54;;;;;;;21.00;9.50;;;4.60;99.90;;;;;;5014903;28;20129;-25
2022/05/15 03:51:20;;;;;;;9.57;3.93;;;4.40;99.90;;;;;;5012926;28;20124;-25
2022/05/15 03:53:46;;;;;;;7.73;3.27;;;4.80;99.90;;;;;;5013969;28;20136;-26
2022/05/15 03:56:12;;;;;;;13.77;4.10;;;4.60;99.90;;;;;;5013864;28;20099;-25
2022/05/15 03:58:39;;;;;;;4.50;3.10;;;4.40;99.90;;;;;;5012518;28;20525;-26
2022/05/15 04:01:06;;;;;;;7.20;2.87;;;4.10;99.90;;;;;;5013958;28;20446;-25
2022/05/15 04:03:32;;;;;;;16.37;2.13;;;4.00;99.90;;;;;;5012969;28;20061;-25
2022/05/15 04:05:58;;;;;;;41.63;5.53;;;4.20;99.90;;;;;;5013871;28;20042;-26
2022/05/15 04:08:27;;;;;;;10.77;5.67;;;4.10;99.90;;;;;;5013775;28;20038;-26
2022/05/15 04:10:53;;;;;;;7.90;4.57;;;4.40;99.90;;;;;;5013829;28;20046;-26
2022/05/15 04:13:19;;;;;;;5.13;4.33;;;4.10;99.90;;;;;;5017849;28;20093;-26
2022/05/15 04:15:44;;;;;;;4.20;3.72;;;4.20;99.90;;;;;;5020351;28;20374;-26
2022/05/15 04:18:10;;;;;;;8.43;3.93;;;4.30;99.90;;;;;;5020355;28;20481;-25
2022/05/15 04:20:36;;;;;;;7.22;3.58;;;4.20;99.90;;;;;;5019392;28;20058;-26
2022/05/15 04:23:02;;;;;;;12.27;4.97;;;4.40;99.90;;;;;;5018944;28;20107;-26
2022/05/15 04:25:28;;;;;;;18.15;6.90;;;4.30;1.00;;;;;;5020284;28;20062;-26
2022/05/15 04:27:54;;;;;;;29.87;10.43;;;4.70;1.00;;;;;;5020962;28;20046;-26
2022/05/15 04:30:23;;;;;;;35.53;13.68;;;5.20;1.00;;;;;;5020743;28;20507;-26
2022/05/15 04:32:51;;;;;;;34.45;11.40;;;5.60;1.00;;;;;;5020008;28;20053;-26
2022/05/15 04:35:18;;;;;;;30.05;13.77;;;5.40;1.00;;;;;;5020730;28;20145;-26
2022/05/15 04:37:44;;;;;;;29.70;12.85;;;5.60;21.10;;;;;;5020122;28;20046;-26
2022/05/15 04:40:11;;;;;;;40.60;15.63;;;5.90;78.90;;;;;;5020629;28;20052;-26
2022/05/15 04:42:38;;;;;;;51.95;18.15;;;5.90;96.00;;;;;;5020080;28;20048;-26
2022/05/15 04:45:05;;;;;;;55.67;16.85;;;6.10;99.90;;;;;;5019369;28;20072;-26
2022/05/15 04:47:30;;;;;;;39.22;16.20;;;6.40;99.90;;;;;;5019952;28;20034;-26
2022/05/15 04:49:56;;;;;;;54.63;17.25;;;6.60;99.90;;;;;;5019989;28;20068;-25
2022/05/15 04:52:22;;;;;;;50.95;16.55;;;7.10;99.90;;;;;;5019970;28;20045;-26
2022/05/15 04:54:48;;;;;;;43.78;15.07;;;7.60;99.90;;;;;;5019934;28;20058;-26
2022/05/15 04:57:14;;;;;;;58.10;17.85;;;7.70;99.90;;;;;;5020339;28;20053;-26
2022/05/15 04:59:39;;;;;;;45.80;14.15;;;7.70;99.90;;;;;;5019904;28;20133;-25
2022/05/15 05:02:05;;;;;;;57.70;15.60;;;7.80;99.90;;;;;;5019902;28;20124;-25
2022/05/15 05:04:31;;;;;;;43.78;14.25;;;8.00;99.90;;;;;;5019850;28;20052;-26
2022/05/15 05:06:57;;;;;;;47.58;13.98;;;8.30;99.90;;;;;;5019171;28;20041;-26
2022/05/15 05:09:24;;;;;;;49.17;14.23;;;8.40;99.90;;;;;;5020126;28;20054;-26
2022/05/15 05:11:50;;;;;;;47.35;12.95;;;8.40;99.90;;;;;;5019844;28;20445;-26
2022/05/15 05:14:16;;;;;;;40.95;12.80;;;8.60;99.90;;;;;;5019786;28;20103;-26
2022/05/15 05:16:41;;;;;;;38.78;12.88;;;8.90;99.90;;;;;;5019822;28;20045;-26
2022/05/15 05:19:07;;;;;;;49.33;12.80;;;8.90;99.90;;;;;;5019779;28;20477;-26
2022/05/15 05:21:33;;;;;;;48.83;13.15;;;9.00;99.90;;;;;;5019774;28;20049;-26
2022/05/15 05:23:59;;;;;;;35.13;11.00;;;8.90;99.90;;;;;;5017915;28;20069;-26
2022/05/15 05:26:26;;;;;;;38.97;12.27;;;9.20;99.90;;;;;;5016936;28;20074;-26
2022/05/15 05:28:52;;;;;;;34.10;10.43;;;9.40;99.90;;;;;;5016564;28;20416;-26
2022/05/15 05:31:18;;;;;;;41.25;11.10;;;9.90;99.90;;;;;;5016797;28;20052;-26
2022/05/15 05:33:44;;;;;;;31.83;10.00;;;10.80;99.90;;;;;;5017001;28;20533;-27
2022/05/15 05:36:11;;;;;;;32.72;10.02;;;11.90;99.90;;;;;;5016439;28;20093;-26
2022/05/15 05:38:37;;;;;;;27.83;8.52;;;12.60;99.90;;;;;;5015268;28;20042;-26
2022/05/15 05:41:03;;;;;;;28.02;8.57;;;13.10;1.20;;;;;;5016340;28;20056;-26
2022/05/15 05:43:29;;;;;;;31.05;7.88;;;13.70;99.90;;;;;;5016327;28;20092;-26
2022/05/15 05:45:54;;;;;;;32.33;8.82;;;14.10;1.00;;;;;;5016255;28;20085;-26
2022/05/15 05:48:20;;;;;;;28.08;7.55;;;14.40;99.90;;;;;;4998903;28;20532;-27
2022/05/15 05:50:46;;;;;;;24.52;7.25;;;14.60;70.80;;;;;;5015879;28;20045;-26
2022/05/15 05:53:11;;;;;;;23.02;6.72;;;14.90;1.00;;;;;;5016116;28;20053;-27
2022/05/15 05:55:37;;;;;;;23.15;7.03;;;15.10;1.00;;;;;;5014915;28;20077;-27
2022/05/15 05:58:03;;;;;;;23.83;6.65;;;15.40;99.90;;;;;;5015984;28;20045;-27
2022/05/15 06:00:33;;;;;;;25.63;6.47;;;15.60;99.90;;;;;;5015964;28;20048;-27
2022/05/15 06:05:44;;;;;;;19.40;5.10;;;15.80;99.90;;;;;;5015992;28;20141;-27
2022/05/15 06:08:10;;;;;;;23.33;7.47;;;16.00;85.40;;;;;;5015796;28;20077;-26
2022/05/15 06:10:37;;;;;;;25.88;6.32;;;16.20;36.20;;;;;;5014553;28;20049;-26
2022/05/15 06:13:03;;;;;;;25.63;7.35;;;16.40;1.00;;;;;;4982340;28;20095;-26
2022/05/15 06:15:29;;;;;;;22.10;5.68;;;16.90;1.00;;;;;;5014515;28;20073;-26
2022/05/15 06:17:59;;;;;;;24.00;6.47;;;17.10;1.00;;;;;;5015661;28;20118;-27
2022/05/15 06:20:25;;;;;;;23.70;7.55;;;17.30;1.00;;;;;;5015586;28;20486;-26
2022/05/15 06:22:51;;;;;;;26.45;5.82;;;17.40;1.00;;;;;;5014638;28;20104;-27
2022/05/15 06:25:17;;;;;;;27.25;6.82;;;17.40;1.00;;;;;;5015205;28;20100;-26
2022/05/15 06:27:42;;;;;;;24.83;6.20;;;17.50;1.00;;;;;;5015972;28;20038;-26
2022/05/15 06:30:09;;;;;;;20.35;6.00;;;17.70;99.90;;;;;;5015443;28;20508;-26
2022/05/15 06:32:35;;;;;;;21.08;6.10;;;17.70;99.90;;;;;;5015675;28;20056;-26
2022/05/15 06:35:01;;;;;;;20.80;6.13;;;17.60;99.90;;;;;;5014865;28;20049;-26
2022/05/15 06:37:26;;;;;;;18.50;5.88;;;17.70;99.90;;;;;;5015229;28;20128;-26
2022/05/15 06:39:52;;;;;;;21.60;5.80;;;17.70;99.90;;;;;;5014956;28;20061;-26
2022/05/15 06:42:18;;;;;;;19.95;5.95;;;17.80;99.90;;;;;;5015223;28;20046;-26
2022/05/15 06:44:44;;;;;;;20.35;6.75;;;17.90;99.90;;;;;;5015949;28;20085;-26
2022/05/15 06:47:10;;;;;;;19.88;6.00;;;18.10;99.90;;;;;;5015584;28;20038;-26
2022/05/15 06:49:35;;;;;;;20.58;5.85;;;18.50;99.90;;;;;;5013904;28;20046;-26
2022/05/15 06:52:01;;;;;;;21.35;6.20;;;18.50;99.90;;;;;;5013857;28;20072;-26
2022/05/15 06:54:27;;;;;;;19.40;5.38;;;18.70;99.90;;;;;;5015020;28;20057;-26
2022/05/15 06:59:37;;;;;;;23.73;5.93;;;18.80;99.90;;;;;;5015483;28;20060;-26
2022/05/15 07:02:03;;;;;;;24.27;5.85;;;19.00;99.90;;;;;;5014863;28;20049;-26
2022/05/15 07:04:29;;;;;;;27.10;6.95;;;19.20;99.90;;;;;;5014469;28;20128;-26
2022/05/15 07:06:56;;;;;;;21.67;6.07;;;19.00;99.90;;;;;;5013551;28;20438;-26
2022/05/15 07:09:21;;;;;;;18.75;5.47;;;19.10;99.90;;;;;;5014737;28;20050;-26
2022/05/15 07:11:47;;;;;;;23.45;5.65;;;19.10;99.90;;;;;;5014696;28;20090;-26
2022/05/15 07:14:13;;;;;;;25.42;6.53;;;19.20;99.90;;;;;;5014613;28;20042;-26
2022/05/15 07:16:40;;;;;;;19.90;5.13;;;19.20;99.90;;;;;;5014579;28;20045;-26
2022/05/15 07:19:06;;;;;;;25.00;5.97;;;19.10;99.90;;;;;;5014564;28;20046;-26
2022/05/15 07:21:31;;;;;;;22.90;5.90;;;19.50;99.90;;;;;;5013589;28;20128;-26
2022/05/15 07:23:57;;;;;;;22.77;5.38;;;19.40;99.90;;;;;;5014350;28;20093;-26
2022/05/15 07:26:24;;;;;;;19.67;6.03;;;19.60;99.90;;;;;;5014430;28;20122;-26
2022/05/15 07:28:51;;;;;;;21.70;6.10;;;19.50;99.90;;;;;;5013443;28;20473;-26
2022/05/15 07:31:18;;;;;;;22.20;5.95;;;19.50;99.90;;;;;;5014365;28;20062;-26
2022/05/15 07:33:45;;;;;;;25.50;6.90;;;19.60;99.90;;;;;;5014515;28;20140;-26
2022/05/15 07:36:11;;;;;;;25.90;6.43;;;19.50;99.90;;;;;;5014797;28;20046;-26
2022/05/15 07:38:37;;;;;;;23.52;7.00;;;19.50;99.90;;;;;;5014215;28;20054;-26
2022/05/15 07:41:04;;;;;;;20.00;5.68;;;19.60;99.90;;;;;;4997244;28;20115;-26
2022/05/15 07:43:29;;;;;;;20.20;5.20;;;19.70;99.90;;;;;;5014175;28;20058;-26
2022/05/15 07:45:55;;;;;;;22.55;6.05;;;19.80;97.20;;;;;;5013198;28;20449;-26
2022/05/15 07:48:21;;;;;;;22.83;6.45;;;19.70;99.90;;;;;;5012222;28;20474;-26
2022/05/15 07:50:48;;;;;;;21.92;5.20;;;20.20;97.10;;;;;;5012810;28;20060;-26
2022/05/15 07:53:14;;;;;;;17.83;4.70;;;20.10;37.10;;;;;;5014015;28;20452;-26
2022/05/15 07:55:40;;;;;;;21.55;5.40;;;20.10;5.50;;;;;;5014248;28;20092;-26
2022/05/15 07:58:06;;;;;;;21.10;5.55;;;20.20;1.00;;;;;;5014741;28;20127;-26
2022/05/15 08:00:32;;;;;;;19.45;5.18;;;20.30;1.00;;;;;;5014795;28;20050;-27
2022/05/15 08:03:10;;;;;;;20.15;5.35;;;20.30;1.00;;;;;;5012651;28;20511;-26
2022/05/15 08:08:21;;;;;;;19.73;5.80;;;20.40;1.00;;;;;;5013866;28;20494;-27
2022/05/15 08:10:48;;;;;;;19.58;5.25;;;20.60;1.00;;;;;;5013893;28;20085;-26
2022/05/15 08:13:18;;;;;;;16.33;4.60;;;20.90;1.00;;;;;;4996533;28;20049;-27
2022/05/15 08:15:44;;;;;;;21.27;5.97;;;21.30;1.00;;;;;;5012653;28;20404;-26
2022/05/15 08:23:47;;;;;;;16.33;4.68;;;21.70;1.00;;;;;;5012548;28;20401;-26
2022/05/15 08:26:13;;;;;;;17.15;4.75;;;21.60;99.90;;;;;;5013753;28;20050;-26
2022/05/15 08:28:39;;;;;;;17.60;5.47;;;21.60;99.90;;;;;;5013625;28;20120;-26
2022/05/15 08:31:08;;;;;;;20.45;4.70;;;21.60;99.90;;;;;;5012519;28;20124;-27
2022/05/15 08:33:34;;;;;;;20.80;4.88;;;21.80;99.90;;;;;;5013697;28;20052;-26
2022/05/15 08:36:00;;;;;;;16.42;4.95;;;22.20;99.90;;;;;;5013592;28;20053;-27
2022/05/15 08:38:26;;;;;;;15.57;4.63;;;22.40;99.90;;;;;;5013586;28;20038;-27
2022/05/15 08:41:07;;;;;;;17.23;5.32;;;22.70;99.90;;;;;;5013527;28;20482;-26
2022/05/15 08:43:42;;;;;;;14.10;4.38;;;22.70;99.90;;;;;;5013595;28;20050;-27
2022/05/15 08:46:56;;;;;;;17.95;4.13;;;22.90;99.90;;;;;;5012591;28;20478;-26
2022/05/15 08:49:24;;;;;;;;;;;22.80;99.90;;;;;;5027421;28;20421;-27
2022/05/15 08:52:13;;;;;;;15.20;4.45;;;22.60;99.90;;;;;;5014095;28;19921;-27
2022/05/15 08:55:00;;;;;;;14.32;3.95;;;22.80;99.90;;;;;;5013502;28;20050;-27
2022/05/15 08:57:40;;;;;;;14.45;4.13;;;23.00;99.90;;;;;;5013935;28;20046;-27
2022/05/15 09:00:13;;;;;;;13.45;3.90;;;23.20;99.90;;;;;;5016518;28;20046;-27
2022/05/15 09:02:43;;;;;;;12.25;4.07;;;23.40;99.90;;;;;;5017134;28;20089;-27
2022/05/15 09:05:11;;;;;;;17.98;4.72;;;23.60;99.90;;;;;;5017079;28;20050;-27
2022/05/15 09:07:52;;;;;;;15.98;4.28;;;23.70;99.90;;;;;;5015758;28;20046;-27
2022/05/15 09:10:31;;;;;;;16.02;4.65;;;23.80;99.90;;;;;;5017061;28;20052;-27
2022/05/15 09:13:07;;;;;;;13.73;4.60;;;23.80;99.90;;;;;;5016686;28;20531;-27
2022/05/15 09:15:34;;;;;;;15.73;4.05;;;24.00;99.90;;;;;;5016932;28;20053;-27
2022/05/15 09:18:04;;;;;;;16.77;4.45;;;24.20;99.90;;;;;;5015694;28;20046;-27
2022/05/15 09:20:54;;;;;;;13.13;4.10;;;24.20;99.90;;;;;;5017418;28;20049;-27
2022/05/15 09:23:23;;;;;;;17.95;5.15;;;24.30;99.90;;;;;;5015609;28;20061;-27
2022/05/15 09:26:14;;;;;;;15.00;4.85;;;24.30;99.90;;;;;;5016661;28;20115;-27
2022/05/15 09:28:49;;;;;;;12.07;3.88;;;24.40;65.30;;;;;;5016598;28;20089;-27
2022/05/15 09:31:23;;;;;;;15.77;4.38;;;24.30;88.10;;;;;;5017159;28;20129;-27
2022/05/15 09:34:07;;;;;;;15.52;5.10;;;24.60;98.10;;;;;;5016545;28;20409;-27
2022/05/15 09:36:36;;;;;;;18.05;3.95;;;24.80;71.70;;;;;;5015950;28;20053;-27
2022/05/15 09:39:20;;;;;;;16.15;4.60;;;24.90;59.80;;;;;;5015470;28;20104;-27
2022/05/15 09:44:57;;;;;;;14.25;4.60;;;25.10;33.40;;;;;;5017132;28;20061;-27
2022/05/15 09:47:32;;;;;;;16.63;4.50;;;24.90;45.50;;;;;;5016229;28;20458;-28
2022/05/15 09:49:59;;;;;;;12.65;4.30;;;24.90;38.10;;;;;;5015608;28;20050;-27
2022/05/15 09:52:39;;;;;;;15.77;4.25;;;25.10;50.20;;;;;;5016456;28;20099;-27
2022/05/15 09:55:21;;;;;;;11.93;3.78;;;25.60;32.00;;;;;;4999188;28;20061;-27
2022/05/15 09:57:59;;;;;;;15.52;3.53;;;25.50;20.00;;;;;;5016045;28;20049;-28
2022/05/15 10:00:28;;;;;;;13.77;4.05;;;25.10;12.20;;;;;;5016111;28;20398;-27
2022/05/15 10:03:03;;;;;;;13.75;4.18;;;24.70;28.40;;;;;;5014742;28;20177;-27
2022/05/15 10:05:32;;;;;;;14.43;3.90;;;25.00;29.30;;;;;;5016065;28;20124;-28
2022/05/15 10:08:03;;;;;;;11.05;4.03;;;25.50;31.60;;;;;;5015786;28;20133;-28
2022/05/15 10:10:40;;;;;;;12.03;3.67;;;25.50;12.40;;;;;;5015783;28;20041;-27
2022/05/15 10:13:12;;;;;;;15.18;4.18;;;25.60;9.60;;;;;;5016144;28;20312;-28
2022/05/15 10:15:44;;;;;;;14.00;4.47;;;25.70;16.70;;;;;;5016490;28;20050;-27
2022/05/15 10:18:24;;;;;;;12.18;4.10;;;25.90;10.70;;;;;;5015651;28;20038;-27
2022/05/15 10:20:52;;;;;;;15.25;4.70;;;26.40;9.00;;;;;;5016508;28;20050;-27
2022/05/15 10:23:20;;;;;;;12.52;3.72;;;26.10;1.10;;;;;;5015240;28;20049;-27
2022/05/15 10:25:49;;;;;;;9.63;3.55;;;26.30;3.20;;;;;;5015537;28;20481;-27
2022/05/15 10:28:42;;;;;;;11.07;3.70;;;26.40;1.00;;;;;;5014301;28;20049;-27
2022/05/15 10:31:25;;;;;;;11.82;4.03;;;26.60;1.00;;;;;;5015456;28;20053;-27
2022/05/15 10:33:57;;;;;;;12.27;4.07;;;26.50;1.00;;;;;;4998817;28;20053;-27
2022/05/15 10:37:04;;;;;;;12.23;4.07;;;26.60;1.00;;;;;;5014758;28;20061;-27
2022/05/15 10:39:51;;;;;;;13.73;3.65;;;26.90;1.00;;;;;;5024122;28;20061;-27
2022/05/15 10:42:39;;;;;;;11.55;3.50;;;26.80;1.00;;;;;;5015870;28;20121;-27
2022/05/15 10:45:25;;;;;;;14.85;4.30;;;26.90;1.00;;;;;;5015489;28;20478;-27
2022/05/15 10:48:24;;;;;;;14.65;3.70;;;27.00;1.00;;;;;;5015695;28;20042;-27
2022/05/15 10:51:14;;;;;;;11.00;4.03;;;27.00;1.00;;;;;;5015883;28;20046;-27
2022/05/15 11:00:19;;;;;;;11.38;4.13;;;27.40;1.00;;;;;;5014985;28;20521;-28
2022/05/15 11:03:19;;;;;;;13.02;3.80;;;27.60;1.00;;;;;;5013732;28;20388;-27
2022/05/15 11:06:11;;;;;;;8.65;3.38;;;27.50;1.00;;;;;;5014819;28;20053;-27
2022/05/15 11:09:01;;;;;;;13.35;4.70;;;27.00;1.00;;;;;;5014441;28;20413;-28
2022/05/15 11:11:32;;;;;;;11.15;3.35;;;27.00;1.00;;;;;;5013719;28;20112;-27
2022/05/15 11:14:17;;;;;;;12.38;3.50;;;27.40;1.00;;;;;;5014780;28;20096;-28
2022/05/15 11:17:08;;;;;;;8.68;3.22;;;27.70;1.00;;;;;;4996854;28;20049;-30
2022/05/15 11:19:37;;;;;;;9.43;3.20;;;28.10;1.00;;;;;;5014917;28;20089;-28
2022/05/15 11:22:19;;;;;;;9.80;3.35;;;28.00;1.00;;;;;;5014441;28;20085;-28
2022/05/15 11:25:10;;;;;;;14.57;4.18;;;27.60;1.00;;;;;;5014182;28;20112;-29
2022/05/15 11:27:55;;;;;;;12.40;3.33;;;27.20;1.00;;;;;;5014462;28;20100;-28
2022/05/15 11:30:24;;;;;;;11.20;2.88;;;26.60;1.00;;;;;;5015031;28;20273;-28
2022/05/15 11:32:53;;;;;;;9.52;3.13;;;26.70;1.00;;;;;;5015128;28;20068;-27
2022/05/15 11:35:19;;;;;;;12.13;3.88;;;26.70;1.00;;;;;;5014007;28;20042;-28
2022/05/15 11:37:53;;;;;;;11.32;3.10;;;26.80;1.00;;;;;;5014281;28;20048;-27
2022/05/15 11:40:34;;;;;;;11.50;3.28;;;26.90;1.00;;;;;;5014286;28;20042;-28
2022/05/15 11:43:18;;;;;;;10.15;3.45;;;27.10;1.00;;;;;;5014868;28;20111;-27
2022/05/15 11:45:57;;;;;;;9.52;3.35;;;27.20;1.00;;;;;;5014536;28;20046;-28
2022/05/15 11:48:37;;;;;;;9.27;2.65;;;27.10;1.00;;;;;;5014654;28;20103;-27
2022/05/15 11:51:12;;;;;;;8.00;2.58;;;27.20;1.00;;;;;;5013780;28;20462;-27
2022/05/15 11:54:06;;;;;;;9.95;3.55;;;27.50;1.00;;;;;;5014119;28;20108;-27
2022/05/15 11:56:47;;;;;;;9.35;3.17;;;27.50;1.00;;;;;;5012111;28;20061;-28
2022/05/15 11:59:15;;;;;;;12.40;3.30;;;26.80;1.00;;;;;;5014005;28;20049;-27
2022/05/15 12:01:51;;;;;;;9.40;2.97;;;26.20;1.00;;;;;;5013059;28;20099;-27
2022/05/15 12:04:17;;;;;;;10.75;3.65;;;26.10;1.00;;;;;;5014189;28;20054;-27
2022/05/15 12:06:56;;;;;;;10.45;3.03;;;26.20;1.00;;;;;;5014020;28;20072;-29
2022/05/15 12:09:24;;;;;;;10.88;3.53;;;26.60;1.00;;;;;;5013612;28;20112;-28
2022/05/15 12:11:54;;;;;;;8.32;2.45;;;27.00;1.00;;;;;;5013851;28;20111;-28
2022/05/15 12:14:29;;;;;;;8.52;2.67;;;27.50;1.00;;;;;;5013850;28;20084;-29
2022/05/15 12:17:22;;;;;;;7.88;2.78;;;27.90;1.00;;;;;;5012811;28;20513;-28
2022/05/15 12:19:49;;;;;;;8.40;2.78;;;27.90;1.00;;;;;;5013709;28;20050;-28
2022/05/15 12:22:17;;;;;;;7.15;2.42;;;27.40;1.00;;;;;;5013738;28;20061;-28
2022/05/15 12:24:48;;;;;;;9.70;3.42;;;27.00;1.00;;;;;;5014310;28;20053;-28
2022/05/15 12:27:19;;;;;;;9.27;2.72;;;26.90;1.00;;;;;;5013634;28;20127;-28
2022/05/15 12:30:12;;;;;;;8.32;2.38;;;26.80;1.00;;;;;;5013672;28;20061;-28
2022/05/15 12:33:01;;;;;;;8.45;2.42;;;27.10;1.00;;;;;;5015511;28;20062;-29
2022/05/15 12:35:37;;;;;;;6.80;2.15;;;27.50;1.00;;;;;;5018323;28;20050;-28
2022/05/15 12:38:11;;;;;;;7.78;2.65;;;27.50;1.00;;;;;;5017625;28;20042;-28
2022/05/15 12:41:00;;;;;;;6.93;2.42;;;27.70;1.00;;;;;;5017495;28;20050;-28
2022/05/15 12:43:29;;;;;;;6.28;2.35;;;27.80;1.00;;;;;;5017336;28;20061;-28
2022/05/15 12:45:56;;;;;;;9.55;2.53;;;27.80;1.00;;;;;;5017424;28;20046;-28
2022/05/15 12:48:23;;;;;;;6.72;2.00;;;27.80;1.00;;;;;;5017285;28;20100;-28
2022/05/15 12:51:03;;;;;;;8.07;2.83;;;27.70;1.00;;;;;;5017036;28;20501;-28
2022/05/15 12:53:39;;;;;;;7.38;2.53;;;27.60;1.00;;;;;;5018145;28;20168;-28
2022/05/15 12:56:10;;;;;;;8.27;2.03;;;27.60;1.00;;;;;;5017706;28;20042;-29
2022/05/15 12:58:36;;;;;;;9.60;2.75;;;27.00;1.00;;;;;;5017405;28;20132;-28
2022/05/15 13:01:03;;;;;;;10.27;2.90;;;26.90;1.00;;;;;;5017702;28;20057;-28
2022/05/15 13:03:30;;;;;;;8.30;2.25;;;27.00;1.00;;;;;;5017099;28;20056;-28
2022/05/15 13:05:59;;;;;;;7.72;2.78;;;27.00;1.00;;;;;;5017652;28;20057;-28
2022/05/15 13:08:26;;;;;;;9.52;2.50;;;27.10;1.00;;;;;;5017503;28;20486;-29
2022/05/15 13:11:01;;;;;;;10.15;2.90;;;27.40;1.00;;;;;;4999617;28;20504;-28
2022/05/15 13:13:35;;;;;;;8.35;3.13;;;27.50;1.00;;;;;;5017534;28;20387;-29
2022/05/15 13:16:03;;;;;;;8.80;3.08;;;27.30;1.00;;;;;;5016922;28;20103;-28
2022/05/15 13:18:32;;;;;;;10.20;3.55;;;27.20;1.00;;;;;;5017370;28;20042;-28
2022/05/15 13:21:09;;;;;;;6.82;2.30;;;26.90;1.00;;;;;;5016804;28;20042;-28
2022/05/15 13:23:44;;;;;;;7.70;3.45;;;26.80;1.00;;;;;;5016966;28;20053;-28
2022/05/15 13:26:34;;;;;;;9.52;2.70;;;26.90;1.00;;;;;;5016724;28;20057;-28